sensor_id;sensor_type;location;lat;lon;timestamp;temperature;humidity
51035;DHT22;37062;52.546;13.230;2023-08-07T00:01:27;17.00;99.90
51035;DHT22;37062;52.546;13.230;2023-08-07T00:03:55;17.00;99.90
51035;DHT22;37062;52.546;13.230;2023-08-07T00:06:23;17.00;99.90
51035;DHT22;37062;52.546;13.230;2023-08-07T00:08:51;17.00;99.90
51035;DHT22;37062;52.546;13.230;2023-08-07T00:11:19;17.00;99.90
51035;DHT22;37062;52.546;13.230;2023-08-07T00:13:48;17.00;99.90
51035;DHT22;37062;52.546;13.230;2023-08-07T00:16:16;16.90;99.90
51035;DHT22;37062;52.546;13.230;2023-08-07T00:18:45;16.90;99.90
51035;DHT22;37062;52.546;13.230;2023-08-07T00:21:13;16.80;99.90
51035;DHT22;37062;52.546;13.230;2023-08-07T00:23:41;16.80;99.90
51035;DHT22;37062;52.546;13.230;2023-08-07T00:26:09;16.80;99.90
51035;DHT22;37062;52.546;13.230;2023-08-07T00:28:38;16.80;99.90
51035;DHT22;37062;52.546;13.230;2023-08-07T00:31:06;16.80;99.90
51035;DHT22;37062;52.546;13.230;2023-08-07T00:33:34;16.80;99.90
51035;DHT22;37062;52.546;13.230;2023-08-07T00:36:04;16.80;99.90
51035;DHT22;37062;52.546;13.230;2023-08-07T00:38:33;16.80;99.90
51035;DHT22;37062;52.546;13.230;2023-08-07T00:41:01;16.80;99.90
51035;DHT22;37062;52.546;13.230;2023-08-07T00:43:29;16.80;99.90
51035;DHT22;37062;52.546;13.230;2023-08-07T00:45:58;16.80;99.90
51035;DHT22;37062;52.546;13.230;2023-08-07T00:48:27;16.90;99.90
51035;DHT22;37062;52.546;13.230;2023-08-07T00:50:56;16.80;99.90
51035;DHT22;37062;52.546;13.230;2023-08-07T00:53:27;16.90;99.90
51035;DHT22;37062;52.546;13.230;2023-08-07T00:55:55;16.90;99.90
51035;DHT22;37062;52.546;13.230;2023-08-07T00:58:24;16.90;99.90
51035;DHT22;37062;52.546;13.230;2023-08-07T01:00:53;17.00;99.90
51035;DHT22;37062;52.546;13.230;2023-08-07T01:03:21;16.90;99.90
51035;DHT22;37062;52.546;13.230;2023-08-07T01:05:50;16.90;99.90
51035;DHT22;37062;52.546;13.230;2023-08-07T01:08:18;17.00;99.90
51035;DHT22;37062;52.546;13.230;2023-08-07T01:11:03;17.00;99.90
51035;DHT22;37062;52.546;13.230;2023-08-07T01:13:42;17.00;99.90
51035;DHT22;37062;52.546;13.230;2023-08-07T01:16:16;17.00;99.90
51035;DHT22;37062;52.546;13.230;2023-08-07T01:18:46;17.00;99.90
51035;DHT22;37062;52.546;13.230;2023-08-07T01:21:19;17.00;99.90
51035;DHT22;37062;52.546;13.230;2023-08-07T01:23:49;17.00;99.90
51035;DHT22;37062;52.546;13.230;2023-08-07T01:26:19;17.00;99.90
51035;DHT22;37062;52.546;13.230;2023-08-07T01:28:55;17.00;99.90
51035;DHT22;37062;52.546;13.230;2023-08-07T01:31:27;17.00;99.90
51035;DHT22;37062;52.546;13.230;2023-08-07T01:34:04;17.00;99.90
51035;DHT22;37062;52.546;13.230;2023-08-07T01:36:33;16.90;99.90
51035;DHT22;37062;52.546;13.230;2023-08-07T01:39:04;17.00;99.90
51035;DHT22;37062;52.546;13.230;2023-08-07T01:41:35;16.90;99.90
51035;DHT22;37062;52.546;13.230;2023-08-07T01:44:04;16.90;99.90
51035;DHT22;37062;52.546;13.230;2023-08-07T01:46:33;16.90;99.90
51035;DHT22;37062;52.546;13.230;2023-08-07T01:49:01;16.90;99.90
51035;DHT22;37062;52.546;13.230;2023-08-07T01:51:29;16.80;99.90
51035;DHT22;37062;52.546;13.230;2023-08-07T01:53:57;16.80;99.90
51035;DHT22;37062;52.546;13.230;2023-08-07T01:56:27;16.80;99.90
51035;DHT22;37062;52.546;13.230;2023-08-07T01:58:55;16.80;99.90
51035;DHT22;37062;52.546;13.230;2023-08-07T02:01:23;16.80;99.90
51035;DHT22;37062;52.546;13.230;2023-08-07T02:03:52;16.80;99.90
51035;DHT22;37062;52.546;13.230;2023-08-07T02:06:20;16.80;99.90
51035;DHT22;37062;52.546;13.230;2023-08-07T02:08:48;16.70;99.90
51035;DHT22;37062;52.546;13.230;2023-08-07T02:11:16;16.70;99.90
51035;DHT22;37062;52.546;13.230;2023-08-07T02:13:46;16.70;99.90
51035;DHT22;37062;52.546;13.230;2023-08-07T02:16:14;16.70;99.90
51035;DHT22;37062;52.546;13.230;2023-08-07T02:18:43;16.70;99.90
51035;DHT22;37062;52.546;13.230;2023-08-07T02:21:12;16.60;99.90
51035;DHT22;37062;52.546;13.230;2023-08-07T02:23:40;16.60;99.90
51035;DHT22;37062;52.546;13.230;2023-08-07T02:26:09;16.60;99.90
51035;DHT22;37062;52.546;13.230;2023-08-07T02:28:37;16.70;99.90
51035;DHT22;37062;52.546;13.230;2023-08-07T02:31:07;16.70;99.90
51035;DHT22;37062;52.546;13.230;2023-08-07T02:33:35;16.60;99.90
51035;DHT22;37062;52.546;13.230;2023-08-07T02:36:03;16.60;99.90
51035;DHT22;37062;52.546;13.230;2023-08-07T02:38:31;16.60;99.90
51035;DHT22;37062;52.546;13.230;2023-08-07T02:41:01;16.60;99.90
51035;DHT22;37062;52.546;13.230;2023-08-07T02:43:29;16.60;99.90
51035;DHT22;37062;52.546;13.230;2023-08-07T02:45:59;16.70;99.90
51035;DHT22;37062;52.546;13.230;2023-08-07T02:48:29;16.70;99.90
51035;DHT22;37062;52.546;13.230;2023-08-07T02:50:57;16.70;99.90
51035;DHT22;37062;52.546;13.230;2023-08-07T02:53:25;16.70;99.90
51035;DHT22;37062;52.546;13.230;2023-08-07T02:55:53;16.70;99.90
51035;DHT22;37062;52.546;13.230;2023-08-07T02:58:22;16.80;99.90
51035;DHT22;37062;52.546;13.230;2023-08-07T03:00:50;16.70;99.90
51035;DHT22;37062;52.546;13.230;2023-08-07T03:03:18;16.70;99.90
51035;DHT22;37062;52.546;13.230;2023-08-07T03:05:51;16.70;99.90
51035;DHT22;37062;52.546;13.230;2023-08-07T03:08:19;16.70;99.90
51035;DHT22;37062;52.546;13.230;2023-08-07T03:10:52;16.70;99.90
51035;DHT22;37062;52.546;13.230;2023-08-07T03:13:22;16.70;99.90
51035;DHT22;37062;52.546;13.230;2023-08-07T03:15:58;16.70;99.90
51035;DHT22;37062;52.546;13.230;2023-08-07T03:18:27;16.70;99.90
51035;DHT22;37062;52.546;13.230;2023-08-07T03:20:57;16.80;99.90
51035;DHT22;37062;52.546;13.230;2023-08-07T03:23:27;16.80;99.90
51035;DHT22;37062;52.546;13.230;2023-08-07T03:26:02;16.80;99.90
51035;DHT22;37062;52.546;13.230;2023-08-07T03:28:44;16.80;99.90
51035;DHT22;37062;52.546;13.230;2023-08-07T03:31:14;16.80;99.90
51035;DHT22;37062;52.546;13.230;2023-08-07T03:33:42;16.80;99.90
51035;DHT22;37062;52.546;13.230;2023-08-07T03:36:13;16.80;99.90
51035;DHT22;37062;52.546;13.230;2023-08-07T03:38:42;16.80;99.90
51035;DHT22;37062;52.546;13.230;2023-08-07T03:41:10;16.80;99.90
51035;DHT22;37062;52.546;13.230;2023-08-07T03:43:40;16.80;99.90
51035;DHT22;37062;52.546;13.230;2023-08-07T03:46:09;16.80;99.90
51035;DHT22;37062;52.546;13.230;2023-08-07T03:48:38;16.80;99.90
51035;DHT22;37062;52.546;13.230;2023-08-07T03:51:07;16.70;99.90
51035;DHT22;37062;52.546;13.230;2023-08-07T03:53:45;16.80;99.90
51035;DHT22;37062;52.546;13.230;2023-08-07T03:56:13;16.80;99.90
51035;DHT22;37062;52.546;13.230;2023-08-07T03:58:42;16.80;99.90
51035;DHT22;37062;52.546;13.230;2023-08-07T04:01:10;16.80;99.90
51035;DHT22;37062;52.546;13.230;2023-08-07T04:03:39;16.80;99.90
51035;DHT22;37062;52.546;13.230;2023-08-07T04:06:07;16.90;99.90
51035;DHT22;37062;52.546;13.230;2023-08-07T04:08:37;16.80;99.90
51035;DHT22;37062;52.546;13.230;2023-08-07T04:11:07;16.90;99.90
51035;DHT22;37062;52.546;13.230;2023-08-07T04:13:35;16.90;99.90
51035;DHT22;37062;52.546;13.230;2023-08-07T04:16:04;16.80;99.90
51035;DHT22;37062;52.546;13.230;2023-08-07T04:18:33;16.90;99.90
51035;DHT22;37062;52.546;13.230;2023-08-07T04:21:02;16.90;99.90
51035;DHT22;37062;52.546;13.230;2023-08-07T04:23:31;17.00;99.90
51035;DHT22;37062;52.546;13.230;2023-08-07T04:25:59;17.10;99.90
51035;DHT22;37062;52.546;13.230;2023-08-07T04:28:29;17.10;99.90
51035;DHT22;37062;52.546;13.230;2023-08-07T04:30:57;17.20;99.90
51035;DHT22;37062;52.546;13.230;2023-08-07T04:33:25;17.20;99.90
51035;DHT22;37062;52.546;13.230;2023-08-07T04:35:53;17.10;99.90
51035;DHT22;37062;52.546;13.230;2023-08-07T04:38:22;17.20;99.90
51035;DHT22;37062;52.546;13.230;2023-08-07T04:40:50;17.20;99.90
51035;DHT22;37062;52.546;13.230;2023-08-07T04:43:19;17.30;99.90
51035;DHT22;37062;52.546;13.230;2023-08-07T04:45:49;17.30;99.90
51035;DHT22;37062;52.546;13.230;2023-08-07T04:48:17;17.40;99.90
51035;DHT22;37062;52.546;13.230;2023-08-07T04:50:47;17.40;99.90
51035;DHT22;37062;52.546;13.230;2023-08-07T04:53:16;17.50;99.90
51035;DHT22;37062;52.546;13.230;2023-08-07T04:55:45;17.60;99.90
51035;DHT22;37062;52.546;13.230;2023-08-07T04:58:13;17.50;99.90
51035;DHT22;37062;52.546;13.230;2023-08-07T05:00:42;17.50;99.90
51035;DHT22;37062;52.546;13.230;2023-08-07T05:03:11;17.60;99.90
51035;DHT22;37062;52.546;13.230;2023-08-07T05:05:40;17.60;99.90
51035;DHT22;37062;52.546;13.230;2023-08-07T05:08:08;17.60;99.90
51035;DHT22;37062;52.546;13.230;2023-08-07T05:10:38;17.70;99.90
51035;DHT22;37062;52.546;13.230;2023-08-07T05:13:06;17.80;99.90
51035;DHT22;37062;52.546;13.230;2023-08-07T05:15:34;17.80;99.90
51035;DHT22;37062;52.546;13.230;2023-08-07T05:18:02;17.90;99.90
51035;DHT22;37062;52.546;13.230;2023-08-07T05:20:32;17.80;99.90
51035;DHT22;37062;52.546;13.230;2023-08-07T05:23:00;17.80;99.90
51035;DHT22;37062;52.546;13.230;2023-08-07T05:25:28;17.90;99.90
51035;DHT22;37062;52.546;13.230;2023-08-07T05:27:56;17.90;99.90
51035;DHT22;37062;52.546;13.230;2023-08-07T05:30:25;18.00;99.90
51035;DHT22;37062;52.546;13.230;2023-08-07T05:32:53;18.00;99.90
51035;DHT22;37062;52.546;13.230;2023-08-07T05:35:21;18.10;99.90
51035;DHT22;37062;52.546;13.230;2023-08-07T05:37:51;18.10;99.90
51035;DHT22;37062;52.546;13.230;2023-08-07T05:40:19;18.20;99.90
51035;DHT22;37062;52.546;13.230;2023-08-07T05:42:48;18.20;99.90
51035;DHT22;37062;52.546;13.230;2023-08-07T05:45:16;18.30;99.90
51035;DHT22;37062;52.546;13.230;2023-08-07T05:47:44;18.30;99.90
51035;DHT22;37062;52.546;13.230;2023-08-07T05:50:12;18.40;99.90
51035;DHT22;37062;52.546;13.230;2023-08-07T05:52:41;18.50;99.90
51035;DHT22;37062;52.546;13.230;2023-08-07T05:55:10;18.70;99.90
51035;DHT22;37062;52.546;13.230;2023-08-07T05:57:38;18.80;99.90
51035;DHT22;37062;52.546;13.230;2023-08-07T06:00:08;19.00;99.90
51035;DHT22;37062;52.546;13.230;2023-08-07T06:02:40;19.10;99.90
51035;DHT22;37062;52.546;13.230;2023-08-07T06:05:09;19.20;99.90
51035;DHT22;37062;52.546;13.230;2023-08-07T06:07:39;19.30;99.90
51035;DHT22;37062;52.546;13.230;2023-08-07T06:10:07;19.40;99.90
51035;DHT22;37062;52.546;13.230;2023-08-07T06:12:37;19.40;99.90
51035;DHT22;37062;52.546;13.230;2023-08-07T06:15:06;19.40;99.90
51035;DHT22;37062;52.546;13.230;2023-08-07T06:17:35;19.40;99.90
51035;DHT22;37062;52.546;13.230;2023-08-07T06:20:07;19.50;99.90
51035;DHT22;37062;52.546;13.230;2023-08-07T06:22:38;19.50;99.90
51035;DHT22;37062;52.546;13.230;2023-08-07T06:25:07;19.70;99.90
51035;DHT22;37062;52.546;13.230;2023-08-07T06:27:37;19.70;99.90
51035;DHT22;37062;52.546;13.230;2023-08-07T06:30:06;19.70;99.90
51035;DHT22;37062;52.546;13.230;2023-08-07T06:32:34;19.70;99.90
51035;DHT22;37062;52.546;13.230;2023-08-07T06:35:04;19.70;99.90
51035;DHT22;37062;52.546;13.230;2023-08-07T06:37:32;19.70;99.90
51035;DHT22;37062;52.546;13.230;2023-08-07T06:40:00;19.80;99.90
51035;DHT22;37062;52.546;13.230;2023-08-07T06:42:29;19.90;99.90
51035;DHT22;37062;52.546;13.230;2023-08-07T06:44:59;19.80;99.90
51035;DHT22;37062;52.546;13.230;2023-08-07T06:47:27;19.90;99.90
51035;DHT22;37062;52.546;13.230;2023-08-07T06:49:55;19.90;99.90
51035;DHT22;37062;52.546;13.230;2023-08-07T06:52:23;20.00;99.90
51035;DHT22;37062;52.546;13.230;2023-08-07T06:54:51;19.90;99.90
51035;DHT22;37062;52.546;13.230;2023-08-07T06:57:20;20.00;99.90
51035;DHT22;37062;52.546;13.230;2023-08-07T06:59:48;20.20;99.90
51035;DHT22;37062;52.546;13.230;2023-08-07T07:02:18;20.30;99.90
51035;DHT22;37062;52.546;13.230;2023-08-07T07:04:46;20.30;99.90
51035;DHT22;37062;52.546;13.230;2023-08-07T07:07:14;20.50;99.90
51035;DHT22;37062;52.546;13.230;2023-08-07T07:09:43;20.60;99.90
51035;DHT22;37062;52.546;13.230;2023-08-07T07:12:11;20.80;99.90
51035;DHT22;37062;52.546;13.230;2023-08-07T07:14:39;20.90;99.90
51035;DHT22;37062;52.546;13.230;2023-08-07T07:17:07;21.00;99.90
51035;DHT22;37062;52.546;13.230;2023-08-07T07:19:37;21.00;99.90
51035;DHT22;37062;52.546;13.230;2023-08-07T07:22:05;21.00;99.90
51035;DHT22;37062;52.546;13.230;2023-08-07T07:24:33;21.10;99.90
51035;DHT22;37062;52.546;13.230;2023-08-07T07:27:02;21.10;99.90
51035;DHT22;37062;52.546;13.230;2023-08-07T07:29:30;21.10;99.90
51035;DHT22;37062;52.546;13.230;2023-08-07T07:31:59;21.30;99.90
51035;DHT22;37062;52.546;13.230;2023-08-07T07:34:27;21.40;99.90
51035;DHT22;37062;52.546;13.230;2023-08-07T07:36:57;21.50;99.90
51035;DHT22;37062;52.546;13.230;2023-08-07T07:39:25;21.60;99.90
51035;DHT22;37062;52.546;13.230;2023-08-07T07:41:53;21.50;99.90
51035;DHT22;37062;52.546;13.230;2023-08-07T07:44:22;21.40;99.90
51035;DHT22;37062;52.546;13.230;2023-08-07T07:46:50;21.50;99.90
51035;DHT22;37062;52.546;13.230;2023-08-07T07:49:19;21.50;99.90
51035;DHT22;37062;52.546;13.230;2023-08-07T07:51:47;21.70;99.90
51035;DHT22;37062;52.546;13.230;2023-08-07T07:54:17;21.70;99.90
51035;DHT22;37062;52.546;13.230;2023-08-07T07:56:45;21.70;99.90
51035;DHT22;37062;52.546;13.230;2023-08-07T07:59:14;21.90;99.90
51035;DHT22;37062;52.546;13.230;2023-08-07T08:01:42;22.10;99.90
51035;DHT22;37062;52.546;13.230;2023-08-07T08:04:10;22.20;99.90
51035;DHT22;37062;52.546;13.230;2023-08-07T08:06:40;22.30;99.90
51035;DHT22;37062;52.546;13.230;2023-08-07T08:09:08;22.40;99.90
51035;DHT22;37062;52.546;13.230;2023-08-07T08:11:38;22.40;99.90
51035;DHT22;37062;52.546;13.230;2023-08-07T08:14:06;22.40;99.90
51035;DHT22;37062;52.546;13.230;2023-08-07T08:16:34;22.30;99.90
51035;DHT22;37062;52.546;13.230;2023-08-07T08:19:03;22.30;99.90
51035;DHT22;37062;52.546;13.230;2023-08-07T08:21:31;22.30;99.90
51035;DHT22;37062;52.546;13.230;2023-08-07T08:23:59;22.20;99.90
51035;DHT22;37062;52.546;13.230;2023-08-07T08:26:27;22.10;99.90
51035;DHT22;37062;52.546;13.230;2023-08-07T08:28:57;21.90;99.90
51035;DHT22;37062;52.546;13.230;2023-08-07T08:31:26;21.70;99.90
51035;DHT22;37062;52.546;13.230;2023-08-07T08:33:55;21.60;99.90
51035;DHT22;37062;52.546;13.230;2023-08-07T08:36:24;21.70;99.90
51035;DHT22;37062;52.546;13.230;2023-08-07T08:38:52;21.80;99.90
51035;DHT22;37062;52.546;13.230;2023-08-07T08:41:21;21.90;99.90
51035;DHT22;37062;52.546;13.230;2023-08-07T08:43:51;22.00;99.90
51035;DHT22;37062;52.546;13.230;2023-08-07T08:46:21;22.20;99.90
51035;DHT22;37062;52.546;13.230;2023-08-07T08:48:52;22.40;99.90
51035;DHT22;37062;52.546;13.230;2023-08-07T08:51:24;22.60;99.90
51035;DHT22;37062;52.546;13.230;2023-08-07T08:53:52;22.60;99.90
51035;DHT22;37062;52.546;13.230;2023-08-07T08:56:23;22.50;99.90
51035;DHT22;37062;52.546;13.230;2023-08-07T08:58:52;22.50;99.90
51035;DHT22;37062;52.546;13.230;2023-08-07T09:01:22;22.40;99.90
51035;DHT22;37062;52.546;13.230;2023-08-07T09:03:53;22.40;99.90
51035;DHT22;37062;52.546;13.230;2023-08-07T09:06:23;22.60;99.90
51035;DHT22;37062;52.546;13.230;2023-08-07T09:08:53;22.70;99.90
51035;DHT22;37062;52.546;13.230;2023-08-07T09:11:21;22.70;99.90
51035;DHT22;37062;52.546;13.230;2023-08-07T09:13:49;22.40;99.90
51035;DHT22;37062;52.546;13.230;2023-08-07T09:16:18;22.30;99.90
51035;DHT22;37062;52.546;13.230;2023-08-07T09:18:48;22.30;99.90
51035;DHT22;37062;52.546;13.230;2023-08-07T09:21:17;22.60;99.90
51035;DHT22;37062;52.546;13.230;2023-08-07T09:23:46;22.80;99.90
51035;DHT22;37062;52.546;13.230;2023-08-07T09:26:21;22.90;99.90
51035;DHT22;37062;52.546;13.230;2023-08-07T09:28:51;23.10;99.90
51035;DHT22;37062;52.546;13.230;2023-08-07T09:31:20;23.10;99.90
51035;DHT22;37062;52.546;13.230;2023-08-07T09:33:50;22.90;99.90
51035;DHT22;37062;52.546;13.230;2023-08-07T09:36:18;22.80;99.90
51035;DHT22;37062;52.546;13.230;2023-08-07T09:38:50;22.90;99.90
51035;DHT22;37062;52.546;13.230;2023-08-07T09:41:18;22.70;99.90
51035;DHT22;37062;52.546;13.230;2023-08-07T09:43:47;22.80;99.90
51035;DHT22;37062;52.546;13.230;2023-08-07T09:46:17;22.70;99.90
51035;DHT22;37062;52.546;13.230;2023-08-07T09:48:47;22.70;99.90
51035;DHT22;37062;52.546;13.230;2023-08-07T09:51:16;22.50;99.90
51035;DHT22;37062;52.546;13.230;2023-08-07T09:53:47;22.70;99.90
51035;DHT22;37062;52.546;13.230;2023-08-07T09:56:15;22.60;99.90
51035;DHT22;37062;52.546;13.230;2023-08-07T09:58:47;22.70;99.90
51035;DHT22;37062;52.546;13.230;2023-08-07T10:01:16;22.80;99.90
51035;DHT22;37062;52.546;13.230;2023-08-07T10:03:46;22.80;99.90
51035;DHT22;37062;52.546;13.230;2023-08-07T10:06:17;22.70;99.90
51035;DHT22;37062;52.546;13.230;2023-08-07T10:08:46;22.70;99.90
51035;DHT22;37062;52.546;13.230;2023-08-07T10:11:14;22.70;99.90
51035;DHT22;37062;52.546;13.230;2023-08-07T10:13:43;22.70;99.90
51035;DHT22;37062;52.546;13.230;2023-08-07T10:16:13;22.90;99.90
51035;DHT22;37062;52.546;13.230;2023-08-07T10:18:42;22.80;99.90
51035;DHT22;37062;52.546;13.230;2023-08-07T10:21:10;22.70;99.90
51035;DHT22;37062;52.546;13.230;2023-08-07T10:23:41;22.60;99.90
51035;DHT22;37062;52.546;13.230;2023-08-07T10:26:11;22.60;99.90
51035;DHT22;37062;52.546;13.230;2023-08-07T10:28:41;22.70;99.90
51035;DHT22;37062;52.546;13.230;2023-08-07T10:31:11;22.70;99.90
51035;DHT22;37062;52.546;13.230;2023-08-07T10:33:41;22.60;99.90
51035;DHT22;37062;52.546;13.230;2023-08-07T10:36:10;22.80;99.90
51035;DHT22;37062;52.546;13.230;2023-08-07T10:38:41;22.80;99.90
51035;DHT22;37062;52.546;13.230;2023-08-07T10:41:10;22.90;99.90
51035;DHT22;37062;52.546;13.230;2023-08-07T10:43:40;23.10;99.90
51035;DHT22;37062;52.546;13.230;2023-08-07T10:46:10;23.10;99.90
51035;DHT22;37062;52.546;13.230;2023-08-07T10:48:40;23.00;99.90
51035;DHT22;37062;52.546;13.230;2023-08-07T10:51:09;22.90;99.90
51035;DHT22;37062;52.546;13.230;2023-08-07T10:53:42;22.70;99.90
51035;DHT22;37062;52.546;13.230;2023-08-07T10:56:15;22.60;99.90
51035;DHT22;37062;52.546;13.230;2023-08-07T10:58:49;22.70;99.90
51035;DHT22;37062;52.546;13.230;2023-08-07T11:01:22;22.60;99.90
51035;DHT22;37062;52.546;13.230;2023-08-07T11:03:52;22.20;99.90
51035;DHT22;37062;52.546;13.230;2023-08-07T11:06:24;22.00;99.90
51035;DHT22;37062;52.546;13.230;2023-08-07T11:08:55;21.80;99.90
51035;DHT22;37062;52.546;13.230;2023-08-07T11:11:24;21.70;99.90
51035;DHT22;37062;52.546;13.230;2023-08-07T11:13:53;21.50;99.90
51035;DHT22;37062;52.546;13.230;2023-08-07T11:16:21;21.30;99.90
51035;DHT22;37062;52.546;13.230;2023-08-07T11:18:50;21.30;99.90
51035;DHT22;37062;52.546;13.230;2023-08-07T11:21:18;21.30;99.90
51035;DHT22;37062;52.546;13.230;2023-08-07T11:23:47;21.30;99.90
51035;DHT22;37062;52.546;13.230;2023-08-07T11:26:18;21.40;99.90
51035;DHT22;37062;52.546;13.230;2023-08-07T11:28:49;21.40;99.90
51035;DHT22;37062;52.546;13.230;2023-08-07T11:31:17;21.60;99.90
51035;DHT22;37062;52.546;13.230;2023-08-07T11:33:46;21.70;99.90
51035;DHT22;37062;52.546;13.230;2023-08-07T11:36:14;21.70;99.90
51035;DHT22;37062;52.546;13.230;2023-08-07T11:38:43;21.60;99.90
51035;DHT22;37062;52.546;13.230;2023-08-07T11:41:14;21.60;99.90
51035;DHT22;37062;52.546;13.230;2023-08-07T11:43:44;21.70;99.90
51035;DHT22;37062;52.546;13.230;2023-08-07T11:46:14;22.00;99.90
51035;DHT22;37062;52.546;13.230;2023-08-07T11:48:43;22.20;99.90
51035;DHT22;37062;52.546;13.230;2023-08-07T11:51:12;22.30;99.90
51035;DHT22;37062;52.546;13.230;2023-08-07T11:53:41;22.40;99.90
51035;DHT22;37062;52.546;13.230;2023-08-07T11:56:11;22.50;99.90
51035;DHT22;37062;52.546;13.230;2023-08-07T11:58:44;22.60;99.90
51035;DHT22;37062;52.546;13.230;2023-08-07T12:01:14;22.80;99.90
51035;DHT22;37062;52.546;13.230;2023-08-07T12:03:52;22.90;99.90
51035;DHT22;37062;52.546;13.230;2023-08-07T12:06:21;22.80;99.90
51035;DHT22;37062;52.546;13.230;2023-08-07T12:08:53;22.60;99.90
51035;DHT22;37062;52.546;13.230;2023-08-07T12:11:21;22.50;99.90
51035;DHT22;37062;52.546;13.230;2023-08-07T12:13:51;22.50;99.90
51035;DHT22;37062;52.546;13.230;2023-08-07T12:16:20;22.60;99.90
51035;DHT22;37062;52.546;13.230;2023-08-07T12:18:49;22.60;99.90
51035;DHT22;37062;52.546;13.230;2023-08-07T12:21:19;22.70;99.90
51035;DHT22;37062;52.546;13.230;2023-08-07T12:23:50;22.80;99.90
51035;DHT22;37062;52.546;13.230;2023-08-07T12:26:18;22.80;99.90
51035;DHT22;37062;52.546;13.230;2023-08-07T12:28:46;22.70;99.90
51035;DHT22;37062;52.546;13.230;2023-08-07T12:31:16;22.40;99.90
51035;DHT22;37062;52.546;13.230;2023-08-07T12:33:45;22.30;99.90
51035;DHT22;37062;52.546;13.230;2023-08-07T12:36:14;22.30;99.90
51035;DHT22;37062;52.546;13.230;2023-08-07T12:38:45;22.30;99.90
51035;DHT22;37062;52.546;13.230;2023-08-07T12:41:14;22.30;99.90
51035;DHT22;37062;52.546;13.230;2023-08-07T12:43:45;22.30;99.90
51035;DHT22;37062;52.546;13.230;2023-08-07T12:46:13;22.10;99.90
51035;DHT22;37062;52.546;13.230;2023-08-07T12:48:46;22.20;99.90
51035;DHT22;37062;52.546;13.230;2023-08-07T12:51:14;22.10;99.90
51035;DHT22;37062;52.546;13.230;2023-08-07T12:53:42;21.90;99.90
51035;DHT22;37062;52.546;13.230;2023-08-07T12:56:12;21.80;99.90
51035;DHT22;37062;52.546;13.230;2023-08-07T12:58:40;21.90;99.90
51035;DHT22;37062;52.546;13.230;2023-08-07T13:01:09;22.10;99.90
51035;DHT22;37062;52.546;13.230;2023-08-07T13:03:38;22.30;99.90
51035;DHT22;37062;52.546;13.230;2023-08-07T13:06:08;22.20;99.90
51035;DHT22;37062;52.546;13.230;2023-08-07T13:08:39;22.30;99.90
51035;DHT22;37062;52.546;13.230;2023-08-07T13:11:08;22.30;99.90
51035;DHT22;37062;52.546;13.230;2023-08-07T13:13:36;22.30;99.90
51035;DHT22;37062;52.546;13.230;2023-08-07T13:16:05;22.40;99.90
51035;DHT22;37062;52.546;13.230;2023-08-07T13:18:34;22.30;99.90
51035;DHT22;37062;52.546;13.230;2023-08-07T13:21:02;22.30;99.90
51035;DHT22;37062;52.546;13.230;2023-08-07T13:23:32;22.30;99.90
51035;DHT22;37062;52.546;13.230;2023-08-07T13:26:00;22.30;99.90
51035;DHT22;37062;52.546;13.230;2023-08-07T13:28:28;22.20;99.90
51035;DHT22;37062;52.546;13.230;2023-08-07T13:30:57;22.20;99.90
51035;DHT22;37062;52.546;13.230;2023-08-07T13:33:25;22.20;99.90
51035;DHT22;37062;52.546;13.230;2023-08-07T13:35:53;22.20;99.90
51035;DHT22;37062;52.546;13.230;2023-08-07T13:38:22;22.10;99.90
51035;DHT22;37062;52.546;13.230;2023-08-07T13:40:51;22.20;99.90
51035;DHT22;37062;52.546;13.230;2023-08-07T13:43:20;22.20;99.90
51035;DHT22;37062;52.546;13.230;2023-08-07T13:45:48;22.30;99.90
51035;DHT22;37062;52.546;13.230;2023-08-07T13:48:18;22.20;99.90
51035;DHT22;37062;52.546;13.230;2023-08-07T13:50:46;22.30;99.90
51035;DHT22;37062;52.546;13.230;2023-08-07T13:53:14;22.50;99.90
51035;DHT22;37062;52.546;13.230;2023-08-07T13:55:43;22.60;99.90
51035;DHT22;37062;52.546;13.230;2023-08-07T13:58:13;22.60;99.90
51035;DHT22;37062;52.546;13.230;2023-08-07T14:00:43;22.60;99.90
51035;DHT22;37062;52.546;13.230;2023-08-07T14:03:11;22.50;99.90
51035;DHT22;37062;52.546;13.230;2023-08-07T14:05:40;22.50;99.90
51035;DHT22;37062;52.546;13.230;2023-08-07T14:08:08;22.50;99.90
51035;DHT22;37062;52.546;13.230;2023-08-07T14:10:38;22.50;99.90
51035;DHT22;37062;52.546;13.230;2023-08-07T14:13:08;22.60;99.90
51035;DHT22;37062;52.546;13.230;2023-08-07T14:15:40;22.60;99.90
51035;DHT22;37062;52.546;13.230;2023-08-07T14:18:08;22.70;99.90
51035;DHT22;37062;52.546;13.230;2023-08-07T14:20:37;22.70;99.90
51035;DHT22;37062;52.546;13.230;2023-08-07T14:23:26;22.60;99.90
51035;DHT22;37062;52.546;13.230;2023-08-07T14:26:14;22.50;99.90
51035;DHT22;37062;52.546;13.230;2023-08-07T14:28:42;22.50;99.90
51035;DHT22;37062;52.546;13.230;2023-08-07T14:31:12;22.50;99.90
51035;DHT22;37062;52.546;13.230;2023-08-07T14:33:40;22.50;99.90
51035;DHT22;37062;52.546;13.230;2023-08-07T14:36:08;22.60;99.90
51035;DHT22;37062;52.546;13.230;2023-08-07T14:38:37;22.70;99.90
51035;DHT22;37062;52.546;13.230;2023-08-07T14:41:05;22.60;99.90
51035;DHT22;37062;52.546;13.230;2023-08-07T14:43:33;22.50;99.90
51035;DHT22;37062;52.546;13.230;2023-08-07T14:46:01;22.50;99.90
51035;DHT22;37062;52.546;13.230;2023-08-07T14:48:32;22.50;99.90
51035;DHT22;37062;52.546;13.230;2023-08-07T14:51:00;22.40;99.90
51035;DHT22;37062;52.546;13.230;2023-08-07T14:53:28;22.10;99.90
51035;DHT22;37062;52.546;13.230;2023-08-07T14:55:56;22.00;99.90
51035;DHT22;37062;52.546;13.230;2023-08-07T14:58:24;21.90;99.90
51035;DHT22;37062;52.546;13.230;2023-08-07T15:00:54;21.80;99.90
51035;DHT22;37062;52.546;13.230;2023-08-07T15:03:22;21.80;99.90
51035;DHT22;37062;52.546;13.230;2023-08-07T15:05:52;21.90;99.90
51035;DHT22;37062;52.546;13.230;2023-08-07T15:08:20;22.00;99.90
51035;DHT22;37062;52.546;13.230;2023-08-07T15:10:50;21.80;99.90
51035;DHT22;37062;52.546;13.230;2023-08-07T15:13:19;21.90;99.90
51035;DHT22;37062;52.546;13.230;2023-08-07T15:15:47;22.00;99.90
51035;DHT22;37062;52.546;13.230;2023-08-07T15:18:15;22.00;99.90
51035;DHT22;37062;52.546;13.230;2023-08-07T15:20:44;21.90;99.90
51035;DHT22;37062;52.546;13.230;2023-08-07T15:23:16;21.90;99.90
51035;DHT22;37062;52.546;13.230;2023-08-07T15:25:44;21.80;99.90
51035;DHT22;37062;52.546;13.230;2023-08-07T15:28:12;21.80;99.90